createdAt,value
2023-05-05T00:00:12.758Z,59.62
2023-05-05T00:02:59.961Z,59.52
2023-05-05T00:05:26.640Z,59.47
2023-05-05T00:07:53.528Z,60.12
2023-05-05T00:10:20.269Z,59.96
2023-05-05T00:12:46.947Z,60.01
2023-05-05T00:15:13.400Z,59.97
2023-05-05T00:17:40.088Z,60.18
2023-05-05T00:20:10.608Z,60.04
2023-05-05T00:22:37.140Z,60.07
2023-05-05T00:25:04.402Z,60.84
2023-05-05T00:27:30.927Z,60.54
2023-05-05T00:29:57.467Z,60.36
2023-05-05T00:32:24.203Z,60.83
2023-05-05T00:34:51.252Z,60.85
2023-05-05T00:37:17.707Z,60.72
2023-05-05T00:39:44.704Z,60.92
2023-05-05T00:42:11.557Z,61.88
2023-05-05T00:44:40.931Z,62.17
2023-05-05T00:47:09.078Z,62.06
2023-05-05T00:49:36.328Z,62.08
2023-05-05T00:52:04.415Z,61.91
2023-05-05T00:54:31.371Z,62.21
2023-05-05T00:56:57.868Z,62.39
2023-05-05T00:59:25.240Z,62.60
2023-05-05T01:01:52.209Z,62.54
2023-05-05T01:04:18.760Z,62.82
2023-05-05T01:07:07.767Z,62.72
2023-05-05T01:10:20.131Z,62.61
2023-05-05T01:13:19.326Z,62.52
2023-05-05T01:15:52.886Z,62.65
2023-05-05T01:18:39.916Z,63.15
2023-05-05T01:21:14.780Z,63.38
2023-05-05T01:24:06.409Z,63.86
2023-05-05T01:26:49.624Z,63.39
2023-05-05T01:29:37.975Z,63.10
2023-05-05T01:32:14.232Z,63.48
2023-05-05T01:35:01.669Z,63.72
2023-05-05T01:37:42.851Z,63.82
2023-05-05T01:40:13.863Z,63.58
2023-05-05T01:42:43.104Z,63.92
2023-05-05T01:45:12.336Z,63.94
2023-05-05T01:47:41.499Z,64.41
2023-05-05T01:50:10.191Z,64.57
2023-05-05T01:52:38.562Z,64.78
2023-05-05T01:55:07.995Z,64.77
2023-05-05T01:57:37.743Z,65.30
2023-05-05T02:00:05.822Z,65.01
2023-05-05T02:02:44.731Z,64.93
2023-05-05T02:05:12.861Z,65.00
2023-05-05T02:07:39.798Z,65.89
2023-05-05T02:10:07.610Z,65.82
2023-05-05T02:12:36.863Z,66.01
2023-05-05T02:15:05.129Z,65.65
2023-05-05T02:17:32.931Z,65.75
2023-05-05T02:20:03.461Z,65.83
2023-05-05T02:22:30.927Z,65.85
2023-05-05T02:24:58.003Z,65.81
2023-05-05T02:27:26.596Z,66.22
2023-05-05T02:29:58.815Z,66.48
2023-05-05T02:32:34.487Z,66.30
2023-05-05T02:35:10.565Z,66.38
2023-05-05T02:37:43.342Z,66.44
2023-05-05T02:40:11.745Z,66.32
2023-05-05T02:42:40.992Z,66.39
2023-05-05T02:45:21.724Z,66.30
2023-05-05T02:47:48.872Z,66.41
2023-05-05T02:50:15.777Z,66.74
2023-05-05T02:52:48.335Z,66.69
2023-05-05T02:55:15.877Z,66.70
2023-05-05T02:58:00.439Z,66.81
2023-05-05T03:00:30.453Z,67.04
2023-05-05T03:03:36.096Z,66.73
2023-05-05T03:06:20.714Z,66.87
2023-05-05T03:09:09.272Z,66.86
2023-05-05T03:11:45.760Z,66.94
2023-05-05T03:14:17.706Z,66.72
2023-05-05T03:16:47.225Z,66.85
2023-05-05T03:19:19.351Z,66.99
2023-05-05T03:21:47.758Z,67.30
2023-05-05T03:24:16.182Z,67.56
2023-05-05T03:26:45.001Z,67.25
2023-05-05T03:29:12.968Z,67.22
2023-05-05T03:31:40.463Z,66.58
2023-05-05T03:34:07.867Z,66.33
2023-05-05T03:36:39.624Z,66.19
2023-05-05T03:39:08.810Z,66.27
2023-05-05T03:41:35.556Z,66.22
2023-05-05T03:44:02.477Z,66.03
2023-05-05T03:46:29.373Z,66.33
2023-05-05T03:48:58.752Z,65.93
2023-05-05T03:51:26.257Z,65.83
2023-05-05T03:53:53.052Z,66.00
2023-05-05T03:56:19.817Z,66.14
2023-05-05T03:58:46.291Z,66.17
2023-05-05T04:01:13.403Z,66.13
2023-05-05T04:03:40.343Z,66.35
2023-05-05T04:06:07.171Z,66.01
2023-05-05T04:08:34.116Z,66.18
2023-05-05T04:11:01.956Z,65.53
2023-05-05T04:13:28.935Z,65.35
2023-05-05T04:15:56.149Z,65.17
2023-05-05T04:18:23.226Z,64.85
2023-05-05T04:20:50.297Z,64.87
2023-05-05T04:23:17.117Z,65.30
2023-05-05T04:25:45.130Z,64.87
2023-05-05T04:28:12.033Z,65.39
2023-05-05T04:30:39.051Z,65.43
2023-05-05T04:33:06.244Z,64.90
2023-05-05T04:35:33.153Z,64.66
2023-05-05T04:37:59.879Z,64.12
2023-05-05T04:40:27.343Z,64.28
2023-05-05T04:42:54.238Z,64.50
2023-05-05T04:45:21.623Z,64.19
2023-05-05T04:47:48.398Z,64.87
2023-05-05T04:50:15.961Z,64.68
2023-05-05T04:52:42.636Z,64.44
2023-05-05T04:55:10.934Z,63.67
2023-05-05T04:57:37.843Z,63.32
2023-05-05T05:00:06.081Z,63.00
2023-05-05T05:02:33.071Z,63.21
2023-05-05T05:04:59.771Z,62.79
2023-05-05T05:07:26.414Z,62.64
2023-05-05T05:09:53.151Z,61.46
2023-05-05T05:12:20.500Z,61.74
2023-05-05T05:14:47.235Z,62.35
2023-05-05T05:17:14.264Z,62.54
2023-05-05T05:19:41.197Z,62.65
2023-05-05T05:22:08.621Z,61.73
2023-05-05T05:24:37.464Z,62.11
2023-05-05T05:27:09.202Z,62.03
2023-05-05T05:29:37.499Z,61.63
2023-05-05T05:32:04.335Z,61.35
2023-05-05T05:34:30.863Z,60.18
2023-05-05T05:36:58.284Z,60.39
2023-05-05T05:39:24.946Z,60.07
2023-05-05T05:41:51.528Z,59.67
2023-05-05T05:44:18.492Z,59.72
2023-05-05T05:46:45.074Z,59.33
2023-05-05T05:49:11.639Z,58.95
2023-05-05T05:51:38.349Z,58.37
2023-05-05T05:54:04.997Z,58.67
2023-05-05T05:56:31.996Z,58.36
2023-05-05T05:58:58.929Z,58.24
2023-05-05T06:01:25.570Z,57.95
2023-05-05T06:03:52.899Z,57.54
2023-05-05T06:06:20.247Z,57.56
2023-05-05T06:08:46.821Z,56.78
2023-05-05T06:11:13.396Z,56.43
2023-05-05T06:13:41.545Z,57.12
2023-05-05T06:16:08.243Z,56.12
2023-05-05T06:18:34.761Z,56.10
2023-05-05T06:21:02.084Z,55.86
2023-05-05T06:23:28.826Z,54.46
2023-05-05T06:25:59.079Z,54.06
2023-05-05T06:28:25.795Z,54.10
2023-05-05T06:30:52.376Z,53.47
2023-05-05T06:33:18.916Z,53.06
2023-05-05T06:35:47.282Z,52.61
2023-05-05T06:38:14.129Z,53.43
2023-05-05T06:40:41.502Z,52.97
2023-05-05T06:43:08.391Z,52.92
2023-05-05T06:45:41.067Z,53.71
2023-05-05T06:48:09.070Z,53.60
2023-05-05T06:50:35.954Z,53.00
2023-05-05T06:53:02.523Z,51.95
2023-05-05T06:55:29.209Z,52.21
2023-05-05T06:57:55.872Z,51.44
2023-05-05T07:00:23.040Z,51.00
2023-05-05T07:02:49.751Z,50.39
2023-05-05T07:05:16.546Z,50.41
2023-05-05T07:07:53.587Z,50.63
2023-05-05T07:10:22.075Z,49.64
2023-05-05T07:12:49.497Z,49.54
2023-05-05T07:15:26.819Z,47.79
2023-05-05T07:17:55.089Z,48.23
2023-05-05T07:20:21.695Z,48.98
2023-05-05T07:22:48.171Z,48.36
2023-05-05T07:25:14.855Z,47.85
2023-05-05T07:27:41.658Z,48.43
2023-05-05T07:30:12.986Z,47.38
2023-05-05T07:32:41.191Z,47.31
2023-05-05T07:35:08.051Z,47.94
2023-05-05T07:37:34.655Z,47.94
2023-05-05T07:40:01.255Z,46.56
2023-05-05T07:42:27.913Z,45.84
2023-05-05T07:44:54.700Z,45.27
2023-05-05T07:47:21.325Z,46.55
2023-05-05T07:49:47.959Z,45.87
2023-05-05T07:52:14.536Z,46.86
2023-05-05T07:54:41.899Z,45.42
2023-05-05T07:57:08.571Z,45.13
2023-05-05T07:59:35.480Z,45.07
2023-05-05T08:02:02.286Z,44.57
2023-05-05T08:04:28.970Z,44.36
2023-05-05T08:06:55.796Z,44.07
2023-05-05T08:09:22.427Z,44.63
2023-05-05T08:11:49.299Z,43.84
2023-05-05T08:14:16.036Z,43.03
2023-05-05T08:16:42.646Z,44.45
2023-05-05T08:19:21.192Z,43.93
2023-05-05T08:21:52.082Z,41.81
2023-05-05T08:24:18.769Z,43.69
2023-05-05T08:26:45.301Z,43.45
2023-05-05T08:29:12.006Z,41.12
2023-05-05T08:31:39.026Z,42.52
2023-05-05T08:34:06.297Z,42.26
2023-05-05T08:36:33.087Z,42.92
2023-05-05T08:38:59.828Z,42.82
2023-05-05T08:41:27.381Z,41.29
2023-05-05T08:43:54.133Z,41.24
2023-05-05T08:46:21.501Z,42.14
2023-05-05T08:48:48.213Z,41.76
2023-05-05T08:51:19.766Z,42.23
2023-05-05T08:53:51.165Z,41.95
2023-05-05T08:56:19.078Z,42.15
2023-05-05T08:58:48.142Z,41.98
2023-05-05T09:01:16.421Z,41.65
2023-05-05T09:03:46.812Z,41.89
2023-05-05T09:06:13.550Z,41.34
2023-05-05T09:08:40.747Z,41.63
2023-05-05T09:11:07.596Z,42.23
2023-05-05T09:13:34.306Z,40.92
2023-05-05T09:16:01.077Z,40.56
2023-05-05T09:18:28.596Z,40.17
2023-05-05T09:20:56.867Z,40.67
2023-05-05T09:23:25.514Z,41.76
2023-05-05T09:26:08.366Z,41.27
2023-05-05T09:28:38.782Z,41.12
2023-05-05T09:31:15.522Z,41.44
2023-05-05T09:33:42.938Z,40.90
2023-05-05T09:36:09.522Z,40.96
2023-05-05T09:38:36.352Z,41.46
2023-05-05T09:41:04.792Z,41.11
2023-05-05T09:43:49.419Z,40.05
2023-05-05T09:46:25.535Z,40.46
2023-05-05T09:48:54.389Z,40.03
2023-05-05T09:51:31.191Z,39.70
2023-05-05T09:53:57.758Z,40.53
2023-05-05T09:56:37.823Z,39.91
2023-05-05T09:59:11.432Z,40.93
2023-05-05T10:01:38.582Z,40.25
2023-05-05T10:04:05.475Z,40.74
2023-05-05T10:06:47.750Z,40.24
2023-05-05T10:09:14.633Z,39.98
2023-05-05T10:11:41.988Z,40.15
2023-05-05T10:14:12.598Z,39.85
2023-05-05T10:16:45.486Z,39.72
2023-05-05T10:19:14.981Z,39.52
2023-05-05T10:21:54.020Z,39.22
2023-05-05T10:24:33.115Z,39.36
2023-05-05T10:27:04.830Z,40.07
2023-05-05T10:29:41.825Z,39.73
2023-05-05T10:32:56.402Z,40.02
2023-05-05T10:35:24.115Z,39.84
2023-05-05T10:37:51.780Z,38.31
2023-05-05T10:40:21.679Z,39.59
2023-05-05T10:42:50.336Z,39.66
2023-05-05T10:45:17.032Z,40.52
2023-05-05T10:47:43.825Z,40.45
2023-05-05T10:50:28.531Z,40.67
2023-05-05T10:53:07.882Z,40.78
2023-05-05T10:55:40.905Z,40.87
2023-05-05T10:58:07.428Z,40.31
2023-05-05T11:00:40.455Z,40.92
2023-05-05T11:03:16.599Z,40.64
2023-05-05T11:06:07.938Z,40.63
2023-05-05T11:08:39.884Z,40.65
2023-05-05T11:11:07.445Z,40.70
2023-05-05T11:13:34.054Z,40.96
2023-05-05T11:16:04.103Z,41.43
2023-05-05T11:18:38.553Z,41.47
2023-05-05T11:21:17.508Z,41.41
2023-05-05T11:23:46.092Z,41.34
2023-05-05T11:26:14.451Z,41.11
2023-05-05T11:28:55.419Z,41.07
2023-05-05T11:31:22.358Z,41.59
2023-05-05T11:33:49.360Z,41.39
2023-05-05T11:36:17.450Z,41.30
2023-05-05T11:39:05.440Z,41.51
2023-05-05T11:41:32.189Z,41.95
2023-05-05T11:44:15.945Z,42.20
2023-05-05T11:46:51.636Z,42.40
2023-05-05T11:49:32.426Z,42.52
2023-05-05T11:52:04.340Z,42.66
2023-05-05T11:54:32.895Z,42.71
2023-05-05T11:57:06.568Z,42.49
2023-05-05T11:59:49.617Z,42.52
2023-05-05T12:02:19.418Z,43.07
2023-05-05T12:04:47.454Z,43.34
2023-05-05T12:07:19.123Z,43.23
2023-05-05T12:09:50.411Z,43.12
2023-05-05T12:12:18.203Z,42.98
2023-05-05T12:14:46.445Z,43.10
2023-05-05T12:17:13.353Z,43.16
2023-05-05T12:19:48.267Z,43.63
2023-05-05T12:22:26.045Z,43.75
2023-05-05T12:25:04.420Z,43.75
2023-05-05T12:27:31.814Z,43.80
2023-05-05T12:30:11.667Z,43.87
2023-05-05T12:32:38.679Z,44.14
2023-05-05T12:35:07.304Z,44.47
2023-05-05T12:37:34.596Z,44.42
2023-05-05T12:40:01.536Z,44.37
2023-05-05T12:42:28.264Z,44.26
2023-05-05T12:44:55.313Z,44.23
2023-05-05T12:47:32.732Z,43.97
2023-05-05T12:50:02.488Z,44.03
2023-05-05T12:52:43.838Z,44.11
2023-05-05T12:55:11.141Z,43.99
2023-05-05T12:57:38.627Z,44.23
2023-05-05T13:00:16.318Z,44.36
2023-05-05T13:02:43.130Z,44.26
2023-05-05T13:05:09.970Z,44.31
2023-05-05T13:07:49.792Z,44.54
2023-05-05T13:10:16.354Z,44.52
2023-05-05T13:12:43.066Z,44.55
2023-05-05T13:15:10.537Z,44.08
2023-05-05T13:17:37.215Z,43.96
2023-05-05T13:20:04.848Z,44.10
2023-05-05T13:22:31.621Z,44.24
2023-05-05T13:24:58.345Z,44.09
2023-05-05T13:27:25.048Z,44.03
2023-05-05T13:29:51.762Z,44.36
2023-05-05T13:32:18.381Z,44.58
2023-05-05T13:34:45.018Z,44.81
2023-05-05T13:37:14.007Z,44.69
2023-05-05T13:39:41.182Z,44.45
2023-05-05T13:42:09.157Z,44.97
2023-05-05T13:44:35.834Z,44.84
2023-05-05T13:47:05.632Z,45.33
2023-05-05T13:49:33.776Z,45.36
2023-05-05T13:52:01.043Z,46.00
2023-05-05T13:54:27.960Z,45.24
2023-05-05T13:56:54.690Z,45.34
2023-05-05T13:59:21.444Z,45.21
2023-05-05T14:01:48.478Z,45.12
2023-05-05T14:04:15.391Z,45.34
2023-05-05T14:06:42.133Z,45.85
2023-05-05T14:09:27.234Z,45.85
2023-05-05T14:11:58.759Z,45.95
2023-05-05T14:14:26.601Z,46.07
2023-05-05T14:16:53.504Z,45.62
2023-05-05T14:19:20.552Z,45.89
2023-05-05T14:21:47.611Z,45.86
2023-05-05T14:24:14.341Z,46.06
2023-05-05T14:26:42.136Z,46.10
2023-05-05T14:29:10.965Z,46.18
2023-05-05T14:31:38.496Z,46.15
2023-05-05T14:34:05.491Z,46.57
2023-05-05T14:36:32.239Z,45.69
2023-05-05T14:38:59.269Z,45.70
2023-05-05T14:41:29.026Z,45.69
2023-05-05T14:43:56.595Z,45.38
2023-05-05T14:46:23.640Z,45.39
2023-05-05T14:48:55.416Z,45.62
2023-05-05T14:51:23.317Z,46.04
2023-05-05T14:53:50.102Z,45.72
2023-05-05T14:56:16.930Z,45.77
2023-05-05T14:58:48.884Z,45.67
2023-05-05T15:01:16.199Z,45.35
2023-05-05T15:03:43.380Z,45.35
2023-05-05T15:06:10.823Z,45.47
2023-05-05T15:08:41.389Z,45.55
2023-05-05T15:11:08.154Z,45.58
2023-05-05T15:13:34.889Z,45.86
2023-05-05T15:16:01.698Z,45.79
2023-05-05T15:18:28.510Z,45.72
2023-05-05T15:20:55.447Z,45.89
2023-05-05T15:23:22.346Z,45.99
2023-05-05T15:25:49.269Z,46.19
2023-05-05T15:28:16.766Z,46.31
2023-05-05T15:30:43.555Z,46.28
2023-05-05T15:33:10.332Z,46.37
2023-05-05T15:35:36.967Z,46.39
2023-05-05T15:38:03.666Z,46.29
2023-05-05T15:40:30.348Z,46.36
2023-05-05T15:42:57.021Z,46.29
2023-05-05T15:45:26.424Z,46.02
2023-05-05T15:47:59.055Z,46.08
2023-05-05T15:50:26.331Z,46.31
2023-05-05T15:52:56.221Z,46.14
2023-05-05T15:55:25.994Z,46.22
2023-05-05T15:57:53.179Z,46.41
2023-05-05T16:00:20.520Z,46.51
2023-05-05T16:02:47.357Z,46.10
2023-05-05T16:05:14.270Z,46.22
2023-05-05T16:07:41.087Z,46.33
2023-05-05T16:10:09.745Z,46.02
2023-05-05T16:12:37.100Z,46.07
2023-05-05T16:15:04.612Z,45.81
2023-05-05T16:17:31.588Z,45.90
2023-05-05T16:20:04.579Z,46.22
2023-05-05T16:22:32.050Z,45.91
2023-05-05T16:24:59.335Z,46.25
2023-05-05T16:27:27.121Z,45.82
2023-05-05T16:29:54.513Z,46.12
2023-05-05T16:32:21.338Z,46.03
2023-05-05T16:34:48.481Z,45.96
2023-05-05T16:37:16.096Z,45.97
2023-05-05T16:39:43.313Z,45.86
2023-05-05T16:42:13.612Z,45.52
2023-05-05T16:44:40.220Z,45.76
2023-05-05T16:47:07.067Z,46.05
2023-05-05T16:49:33.704Z,45.84
2023-05-05T16:52:00.373Z,45.84
2023-05-05T16:54:28.091Z,45.93
2023-05-05T16:56:57.841Z,46.31
2023-05-05T16:59:24.615Z,46.34
2023-05-05T17:01:52.655Z,46.61
2023-05-05T17:04:19.384Z,47.11
2023-05-05T17:06:59.204Z,47.20
2023-05-05T17:09:26.923Z,47.02
2023-05-05T17:11:53.705Z,47.21
2023-05-05T17:14:20.386Z,47.25
2023-05-05T17:16:46.896Z,47.28
2023-05-05T17:19:13.609Z,47.37
2023-05-05T17:21:42.336Z,47.26
2023-05-05T17:24:09.018Z,47.55
2023-05-05T17:26:35.848Z,47.75
2023-05-05T17:29:02.539Z,47.88
2023-05-05T17:31:29.020Z,47.43
2023-05-05T17:33:55.666Z,47.08
2023-05-05T17:36:22.545Z,47.31
2023-05-05T17:38:49.378Z,47.35
2023-05-05T17:41:17.492Z,47.39
2023-05-05T17:43:44.224Z,47.50
2023-05-05T17:46:10.897Z,47.64
2023-05-05T17:48:37.419Z,47.71
2023-05-05T17:51:04.108Z,48.04
2023-05-05T17:53:30.630Z,48.35
2023-05-05T17:55:57.168Z,48.24
2023-05-05T17:58:24.010Z,48.50
2023-05-05T18:00:50.812Z,48.75
2023-05-05T18:03:17.424Z,48.98
2023-05-05T18:05:44.399Z,49.33
2023-05-05T18:08:11.177Z,49.39
2023-05-05T18:10:37.718Z,49.71
2023-05-05T18:13:04.648Z,49.94
2023-05-05T18:15:31.196Z,49.96
2023-05-05T18:17:57.929Z,50.30
2023-05-05T18:20:24.706Z,50.95
2023-05-05T18:22:51.754Z,50.79
2023-05-05T18:25:18.655Z,51.42
2023-05-05T18:27:45.624Z,50.74
2023-05-05T18:30:12.518Z,50.95
2023-05-05T18:32:39.198Z,51.29
2023-05-05T18:35:06.356Z,51.57
2023-05-05T18:37:32.941Z,51.95
2023-05-05T18:39:59.493Z,51.74
2023-05-05T18:42:26.385Z,52.15
2023-05-05T18:44:52.987Z,52.31
2023-05-05T18:47:19.897Z,52.10
2023-05-05T18:49:46.920Z,52.04
2023-05-05T18:52:13.633Z,52.25
2023-05-05T18:54:40.410Z,52.37
2023-05-05T18:57:07.428Z,52.85
2023-05-05T18:59:34.218Z,52.29
2023-05-05T19:02:01.807Z,52.61
2023-05-05T19:04:31.636Z,52.70
2023-05-05T19:06:59.506Z,52.77
2023-05-05T19:09:26.972Z,52.97
2023-05-05T19:11:53.834Z,53.42
2023-05-05T19:14:22.005Z,53.52
2023-05-05T19:16:48.907Z,53.66
2023-05-05T19:19:16.654Z,53.82
2023-05-05T19:21:43.505Z,53.49
2023-05-05T19:24:11.104Z,53.84
2023-05-05T19:26:37.968Z,54.06
2023-05-05T19:29:04.646Z,54.37
2023-05-05T19:31:31.695Z,54.80
2023-05-05T19:34:03.584Z,54.62
2023-05-05T19:36:31.638Z,54.84
2023-05-05T19:39:03.056Z,55.37
2023-05-05T19:41:31.353Z,54.94
2023-05-05T19:43:58.288Z,55.23
2023-05-05T19:46:25.963Z,55.25
2023-05-05T19:48:52.824Z,55.28
2023-05-05T19:51:19.639Z,56.01
2023-05-05T19:53:46.136Z,55.53
2023-05-05T19:56:21.829Z,56.17
2023-05-05T19:58:56.954Z,56.87
2023-05-05T20:01:24.033Z,56.29
2023-05-05T20:03:52.597Z,56.46
2023-05-05T20:06:21.381Z,56.71
2023-05-05T20:08:48.092Z,56.62
2023-05-05T20:11:15.532Z,56.75
2023-05-05T20:13:42.455Z,57.62
2023-05-05T20:16:09.912Z,57.03
2023-05-05T20:18:36.466Z,57.11
2023-05-05T20:21:03.140Z,57.31
2023-05-05T20:23:30.063Z,57.17
2023-05-05T20:25:57.069Z,57.74
2023-05-05T20:28:23.973Z,57.77
2023-05-05T20:30:52.067Z,57.84
2023-05-05T20:33:18.673Z,57.88
2023-05-05T20:35:45.195Z,58.08
2023-05-05T20:38:12.076Z,58.56
2023-05-05T20:40:39.707Z,58.84
2023-05-05T20:43:06.273Z,58.44
2023-05-05T20:45:34.416Z,59.07
2023-05-05T20:48:01.251Z,58.90
2023-05-05T20:50:27.933Z,58.68
2023-05-05T20:52:55.191Z,58.27
2023-05-05T20:55:21.979Z,58.29
2023-05-05T20:57:48.639Z,58.23
2023-05-05T21:00:15.642Z,58.37
2023-05-05T21:02:42.857Z,59.00
2023-05-05T21:05:10.131Z,58.55
2023-05-05T21:07:37.129Z,58.74
2023-05-05T21:10:04.936Z,58.70
2023-05-05T21:12:33.594Z,58.78
2023-05-05T21:15:03.188Z,58.78
2023-05-05T21:17:29.992Z,58.67
2023-05-05T21:19:56.903Z,59.48
2023-05-05T21:22:23.829Z,59.14
2023-05-05T21:24:50.560Z,59.22
2023-05-05T21:27:17.494Z,59.39
2023-05-05T21:29:44.303Z,59.39
2023-05-05T21:32:11.165Z,59.22
2023-05-05T21:34:38.827Z,59.94
2023-05-05T21:37:05.987Z,59.63
2023-05-05T21:39:32.963Z,59.65
2023-05-05T21:41:59.993Z,59.83
2023-05-05T21:44:27.651Z,59.90
2023-05-05T21:46:55.080Z,59.69
2023-05-05T21:49:21.969Z,59.83
2023-05-05T21:51:49.772Z,59.94
2023-05-05T21:54:16.433Z,59.75
2023-05-05T21:56:42.903Z,60.01
2023-05-05T21:59:09.596Z,60.36
2023-05-05T22:01:36.295Z,59.82
2023-05-05T22:04:03.140Z,60.44
2023-05-05T22:06:30.138Z,60.39
2023-05-05T22:08:56.780Z,59.97
2023-05-05T22:11:23.500Z,60.32
2023-05-05T22:13:50.359Z,60.63
2023-05-05T22:16:17.012Z,60.61
2023-05-05T22:18:44.145Z,60.60
2023-05-05T22:21:11.183Z,61.01
2023-05-05T22:23:40.719Z,60.60
2023-05-05T22:26:08.014Z,60.83
2023-05-05T22:28:34.693Z,60.84
2023-05-05T22:31:01.326Z,60.88
2023-05-05T22:33:28.096Z,61.19
2023-05-05T22:35:54.723Z,61.10
2023-05-05T22:38:21.228Z,60.95
2023-05-05T22:40:47.991Z,61.46
2023-05-05T22:43:27.619Z,60.78
2023-05-05T22:45:54.222Z,60.84
2023-05-05T22:48:21.070Z,61.72
2023-05-05T22:50:47.685Z,61.19
2023-05-05T22:53:14.326Z,61.75
2023-05-05T22:55:40.899Z,61.38
2023-05-05T22:58:07.595Z,61.47
2023-05-05T23:00:34.262Z,61.57
2023-05-05T23:03:00.744Z,61.68
2023-05-05T23:05:27.391Z,61.80
2023-05-05T23:07:54.042Z,61.80
2023-05-05T23:10:22.101Z,62.16
2023-05-05T23:12:48.935Z,61.67
2023-05-05T23:15:18.583Z,61.69
2023-05-05T23:17:47.804Z,62.02
2023-05-05T23:20:15.268Z,61.83
2023-05-05T23:22:44.834Z,62.14
2023-05-05T23:25:12.151Z,62.48
2023-05-05T23:27:42.768Z,62.17
2023-05-05T23:30:15.893Z,62.70
2023-05-05T23:32:44.344Z,62.75
2023-05-05T23:35:11.269Z,62.48
2023-05-05T23:37:38.115Z,62.93
2023-05-05T23:40:07.179Z,62.59
2023-05-05T23:42:33.820Z,62.96
2023-05-05T23:45:00.653Z,62.76
2023-05-05T23:47:27.714Z,62.86
2023-05-05T23:49:54.174Z,62.80
2023-05-05T23:52:21.326Z,62.82
2023-05-05T23:54:48.037Z,63.04
2023-05-05T23:57:14.617Z,63.43
2023-05-05T23:59:41.974Z,63.40
